sensor_id;sensor_type;location;lat;lon;timestamp;temperature;humidity
19252;DHT22;9760;50.944;5.304;2022-10-30T00:00:13;16.90;99.90
19252;DHT22;9760;50.944;5.304;2022-10-30T00:02:39;16.90;99.90
19252;DHT22;9760;50.944;5.304;2022-10-30T00:05:05;16.80;99.90
19252;DHT22;9760;50.944;5.304;2022-10-30T00:07:30;16.80;99.90
19252;DHT22;9760;50.944;5.304;2022-10-30T00:09:56;16.70;99.90
19252;DHT22;9760;50.944;5.304;2022-10-30T00:12:22;16.70;99.90
19252;DHT22;9760;50.944;5.304;2022-10-30T00:14:47;16.70;99.90
19252;DHT22;9760;50.944;5.304;2022-10-30T00:17:13;16.70;99.90
19252;DHT22;9760;50.944;5.304;2022-10-30T00:19:38;16.60;99.90
19252;DHT22;9760;50.944;5.304;2022-10-30T00:22:04;16.50;99.90
19252;DHT22;9760;50.944;5.304;2022-10-30T00:24:30;16.50;99.90
19252;DHT22;9760;50.944;5.304;2022-10-30T00:26:55;16.40;99.90
19252;DHT22;9760;50.944;5.304;2022-10-30T00:29:21;16.40;99.90
19252;DHT22;9760;50.944;5.304;2022-10-30T00:31:49;16.30;99.90
19252;DHT22;9760;50.944;5.304;2022-10-30T00:34:15;16.20;99.90
19252;DHT22;9760;50.944;5.304;2022-10-30T00:36:40;16.10;99.90
19252;DHT22;9760;50.944;5.304;2022-10-30T00:39:06;15.90;99.90
19252;DHT22;9760;50.944;5.304;2022-10-30T00:41:32;15.80;99.90
19252;DHT22;9760;50.944;5.304;2022-10-30T00:43:57;15.60;99.90
19252;DHT22;9760;50.944;5.304;2022-10-30T00:46:35;15.50;99.90
19252;DHT22;9760;50.944;5.304;2022-10-30T00:49:09;15.50;99.90
19252;DHT22;9760;50.944;5.304;2022-10-30T00:51:39;15.40;99.90
19252;DHT22;9760;50.944;5.304;2022-10-30T00:54:07;15.40;99.90
19252;DHT22;9760;50.944;5.304;2022-10-30T00:56:33;15.30;99.90
19252;DHT22;9760;50.944;5.304;2022-10-30T00:59:09;15.30;99.90
19252;DHT22;9760;50.944;5.304;2022-10-30T01:01:39;15.30;99.90
19252;DHT22;9760;50.944;5.304;2022-10-30T01:04:07;15.20;99.90
19252;DHT22;9760;50.944;5.304;2022-10-30T01:06:36;15.10;99.90
19252;DHT22;9760;50.944;5.304;2022-10-30T01:09:03;15.10;99.90
19252;DHT22;9760;50.944;5.304;2022-10-30T01:11:29;15.00;99.90
19252;DHT22;9760;50.944;5.304;2022-10-30T01:13:59;14.90;99.90
19252;DHT22;9760;50.944;5.304;2022-10-30T01:19:43;14.90;99.90
19252;DHT22;9760;50.944;5.304;2022-10-30T01:22:38;14.80;99.90
19252;DHT22;9760;50.944;5.304;2022-10-30T01:30:44;14.80;99.90
19252;DHT22;9760;50.944;5.304;2022-10-30T01:38:46;14.90;99.90
19252;DHT22;9760;50.944;5.304;2022-10-30T01:41:11;15.00;99.90
19252;DHT22;9760;50.944;5.304;2022-10-30T01:43:38;15.10;99.90
19252;DHT22;9760;50.944;5.304;2022-10-30T01:46:41;15.10;99.90
19252;DHT22;9760;50.944;5.304;2022-10-30T02:00:09;15.50;99.90
19252;DHT22;9760;50.944;5.304;2022-10-30T02:02:35;15.50;99.90
19252;DHT22;9760;50.944;5.304;2022-10-30T02:05:02;15.50;99.90
19252;DHT22;9760;50.944;5.304;2022-10-30T02:07:28;15.50;99.90
19252;DHT22;9760;50.944;5.304;2022-10-30T02:09:54;15.40;99.90
19252;DHT22;9760;50.944;5.304;2022-10-30T02:12:20;15.40;99.90
19252;DHT22;9760;50.944;5.304;2022-10-30T02:14:53;15.40;99.90
19252;DHT22;9760;50.944;5.304;2022-10-30T02:17:20;15.40;99.90
19252;DHT22;9760;50.944;5.304;2022-10-30T02:19:46;15.40;99.90
19252;DHT22;9760;50.944;5.304;2022-10-30T02:22:12;15.50;99.90
19252;DHT22;9760;50.944;5.304;2022-10-30T02:24:37;15.50;99.90
19252;DHT22;9760;50.944;5.304;2022-10-30T02:27:03;15.50;99.90
19252;DHT22;9760;50.944;5.304;2022-10-30T02:29:29;15.60;99.90
19252;DHT22;9760;50.944;5.304;2022-10-30T02:31:54;15.60;99.90
19252;DHT22;9760;50.944;5.304;2022-10-30T02:34:20;15.60;99.90
19252;DHT22;9760;50.944;5.304;2022-10-30T02:36:46;15.60;99.90
19252;DHT22;9760;50.944;5.304;2022-10-30T02:39:11;15.50;99.90
19252;DHT22;9760;50.944;5.304;2022-10-30T02:41:37;15.50;99.90
19252;DHT22;9760;50.944;5.304;2022-10-30T02:44:04;15.50;99.90
19252;DHT22;9760;50.944;5.304;2022-10-30T02:46:31;15.40;99.90
19252;DHT22;9760;50.944;5.304;2022-10-30T02:48:57;15.40;99.90
19252;DHT22;9760;50.944;5.304;2022-10-30T02:51:23;15.30;99.90
19252;DHT22;9760;50.944;5.304;2022-10-30T02:53:48;15.20;99.90
19252;DHT22;9760;50.944;5.304;2022-10-30T02:56:14;15.10;99.90
19252;DHT22;9760;50.944;5.304;2022-10-30T02:58:40;14.90;99.90
19252;DHT22;9760;50.944;5.304;2022-10-30T03:03:32;15.00;99.90
19252;DHT22;9760;50.944;5.304;2022-10-30T03:06:02;15.10;99.90
19252;DHT22;9760;50.944;5.304;2022-10-30T03:08:28;15.10;99.90
19252;DHT22;9760;50.944;5.304;2022-10-30T03:11:02;15.00;99.90
19252;DHT22;9760;50.944;5.304;2022-10-30T03:13:29;15.00;99.90
19252;DHT22;9760;50.944;5.304;2022-10-30T03:16:02;15.00;99.90
19252;DHT22;9760;50.944;5.304;2022-10-30T03:18:28;15.00;99.90
19252;DHT22;9760;50.944;5.304;2022-10-30T03:20:58;14.90;99.90
19252;DHT22;9760;50.944;5.304;2022-10-30T03:23:25;14.80;99.90
19252;DHT22;9760;50.944;5.304;2022-10-30T03:25:52;14.80;99.90
19252;DHT22;9760;50.944;5.304;2022-10-30T03:28:19;14.70;99.90
19252;DHT22;9760;50.944;5.304;2022-10-30T03:30:44;14.70;99.90
19252;DHT22;9760;50.944;5.304;2022-10-30T03:33:10;14.60;99.90
19252;DHT22;9760;50.944;5.304;2022-10-30T03:35:35;14.50;99.90
19252;DHT22;9760;50.944;5.304;2022-10-30T03:38:01;14.50;99.90
19252;DHT22;9760;50.944;5.304;2022-10-30T03:40:27;14.50;99.90
19252;DHT22;9760;50.944;5.304;2022-10-30T03:42:52;14.40;99.90
19252;DHT22;9760;50.944;5.304;2022-10-30T03:45:18;14.40;99.90
19252;DHT22;9760;50.944;5.304;2022-10-30T03:47:43;14.40;99.90
19252;DHT22;9760;50.944;5.304;2022-10-30T03:50:09;14.40;99.90
19252;DHT22;9760;50.944;5.304;2022-10-30T03:52:34;14.40;99.90
19252;DHT22;9760;50.944;5.304;2022-10-30T03:55:00;14.40;99.90
19252;DHT22;9760;50.944;5.304;2022-10-30T03:57:26;14.30;99.90
19252;DHT22;9760;50.944;5.304;2022-10-30T03:59:51;14.30;99.90
19252;DHT22;9760;50.944;5.304;2022-10-30T04:02:17;14.20;99.90
19252;DHT22;9760;50.944;5.304;2022-10-30T04:04:42;14.20;99.90
19252;DHT22;9760;50.944;5.304;2022-10-30T04:07:08;14.20;99.90
19252;DHT22;9760;50.944;5.304;2022-10-30T04:09:33;14.20;99.90
19252;DHT22;9760;50.944;5.304;2022-10-30T04:11:59;14.00;99.90
19252;DHT22;9760;50.944;5.304;2022-10-30T04:14:24;14.00;99.90
19252;DHT22;9760;50.944;5.304;2022-10-30T04:16:50;13.80;99.90
19252;DHT22;9760;50.944;5.304;2022-10-30T04:19:16;13.70;99.90
19252;DHT22;9760;50.944;5.304;2022-10-30T04:21:42;13.70;99.90
19252;DHT22;9760;50.944;5.304;2022-10-30T04:24:08;13.70;99.90
19252;DHT22;9760;50.944;5.304;2022-10-30T04:26:34;13.80;99.90
19252;DHT22;9760;50.944;5.304;2022-10-30T04:29:00;13.80;99.90
19252;DHT22;9760;50.944;5.304;2022-10-30T04:31:25;13.90;99.90
19252;DHT22;9760;50.944;5.304;2022-10-30T04:33:51;13.90;99.90
19252;DHT22;9760;50.944;5.304;2022-10-30T04:36:17;13.90;99.90
19252;DHT22;9760;50.944;5.304;2022-10-30T04:38:43;13.90;99.90
19252;DHT22;9760;50.944;5.304;2022-10-30T04:41:08;13.90;99.90
19252;DHT22;9760;50.944;5.304;2022-10-30T04:43:34;13.80;99.90
19252;DHT22;9760;50.944;5.304;2022-10-30T04:46:03;13.80;99.90
19252;DHT22;9760;50.944;5.304;2022-10-30T04:48:30;13.90;99.90
19252;DHT22;9760;50.944;5.304;2022-10-30T04:50:57;13.80;99.90
19252;DHT22;9760;50.944;5.304;2022-10-30T04:53:23;13.80;99.90
19252;DHT22;9760;50.944;5.304;2022-10-30T04:55:53;13.80;99.90
19252;DHT22;9760;50.944;5.304;2022-10-30T04:58:19;13.80;99.90
19252;DHT22;9760;50.944;5.304;2022-10-30T05:00:45;13.80;99.90
19252;DHT22;9760;50.944;5.304;2022-10-30T05:03:22;13.80;99.90
19252;DHT22;9760;50.944;5.304;2022-10-30T05:06:01;13.70;99.90
19252;DHT22;9760;50.944;5.304;2022-10-30T05:08:27;13.70;99.90
19252;DHT22;9760;50.944;5.304;2022-10-30T05:10:53;13.60;99.90
19252;DHT22;9760;50.944;5.304;2022-10-30T05:13:19;13.50;99.90
19252;DHT22;9760;50.944;5.304;2022-10-30T05:15:45;13.40;99.90
19252;DHT22;9760;50.944;5.304;2022-10-30T05:18:10;13.30;99.90
19252;DHT22;9760;50.944;5.304;2022-10-30T05:20:36;13.30;99.90
19252;DHT22;9760;50.944;5.304;2022-10-30T05:23:01;13.30;99.90
19252;DHT22;9760;50.944;5.304;2022-10-30T05:25:27;13.20;99.90
19252;DHT22;9760;50.944;5.304;2022-10-30T05:28:03;13.20;99.90
19252;DHT22;9760;50.944;5.304;2022-10-30T05:30:30;13.20;99.90
19252;DHT22;9760;50.944;5.304;2022-10-30T05:32:57;13.20;99.90
19252;DHT22;9760;50.944;5.304;2022-10-30T05:35:23;13.30;99.90
19252;DHT22;9760;50.944;5.304;2022-10-30T05:37:49;13.20;99.90
19252;DHT22;9760;50.944;5.304;2022-10-30T05:40:15;13.10;99.90
19252;DHT22;9760;50.944;5.304;2022-10-30T05:42:48;12.90;99.90
19252;DHT22;9760;50.944;5.304;2022-10-30T05:45:14;12.90;99.90
19252;DHT22;9760;50.944;5.304;2022-10-30T05:47:40;13.00;99.90
19252;DHT22;9760;50.944;5.304;2022-10-30T05:50:06;13.00;99.90
19252;DHT22;9760;50.944;5.304;2022-10-30T05:52:32;13.00;99.90
19252;DHT22;9760;50.944;5.304;2022-10-30T05:54:58;13.00;99.90
19252;DHT22;9760;50.944;5.304;2022-10-30T05:57:26;12.90;99.90
19252;DHT22;9760;50.944;5.304;2022-10-30T05:59:51;12.90;99.90
19252;DHT22;9760;50.944;5.304;2022-10-30T06:02:17;12.80;99.90
19252;DHT22;9760;50.944;5.304;2022-10-30T06:04:42;12.70;99.90
19252;DHT22;9760;50.944;5.304;2022-10-30T06:07:09;12.70;99.90
19252;DHT22;9760;50.944;5.304;2022-10-30T06:09:35;12.70;99.90
19252;DHT22;9760;50.944;5.304;2022-10-30T06:12:01;12.70;99.90
19252;DHT22;9760;50.944;5.304;2022-10-30T06:14:26;12.80;99.90
19252;DHT22;9760;50.944;5.304;2022-10-30T06:16:52;12.80;99.90
19252;DHT22;9760;50.944;5.304;2022-10-30T06:19:17;12.90;99.90
19252;DHT22;9760;50.944;5.304;2022-10-30T06:21:43;12.90;99.90
19252;DHT22;9760;50.944;5.304;2022-10-30T06:24:09;12.90;99.90
19252;DHT22;9760;50.944;5.304;2022-10-30T06:26:34;12.80;99.90
19252;DHT22;9760;50.944;5.304;2022-10-30T06:29:00;12.80;99.90
19252;DHT22;9760;50.944;5.304;2022-10-30T06:31:25;12.80;99.90
19252;DHT22;9760;50.944;5.304;2022-10-30T06:33:51;12.80;99.90
19252;DHT22;9760;50.944;5.304;2022-10-30T06:36:17;12.80;99.90
19252;DHT22;9760;50.944;5.304;2022-10-30T06:38:42;12.80;99.90
19252;DHT22;9760;50.944;5.304;2022-10-30T06:41:08;12.80;99.90
19252;DHT22;9760;50.944;5.304;2022-10-30T06:43:34;12.80;99.90
19252;DHT22;9760;50.944;5.304;2022-10-30T06:46:00;12.90;99.90
19252;DHT22;9760;50.944;5.304;2022-10-30T06:48:26;12.80;99.90
19252;DHT22;9760;50.944;5.304;2022-10-30T06:50:55;12.80;99.90
19252;DHT22;9760;50.944;5.304;2022-10-30T06:53:21;12.70;99.90
19252;DHT22;9760;50.944;5.304;2022-10-30T06:55:58;12.50;99.90
19252;DHT22;9760;50.944;5.304;2022-10-30T06:58:24;12.50;99.90
19252;DHT22;9760;50.944;5.304;2022-10-30T07:00:50;12.40;99.90
19252;DHT22;9760;50.944;5.304;2022-10-30T07:03:15;12.40;99.90
19252;DHT22;9760;50.944;5.304;2022-10-30T07:05:41;12.50;99.90
19252;DHT22;9760;50.944;5.304;2022-10-30T07:08:07;12.60;99.90
19252;DHT22;9760;50.944;5.304;2022-10-30T07:10:32;12.70;99.90
19252;DHT22;9760;50.944;5.304;2022-10-30T07:12:58;12.80;99.90
19252;DHT22;9760;50.944;5.304;2022-10-30T07:15:24;12.70;99.90
19252;DHT22;9760;50.944;5.304;2022-10-30T07:17:55;12.70;99.90
19252;DHT22;9760;50.944;5.304;2022-10-30T07:20:21;12.70;99.90
19252;DHT22;9760;50.944;5.304;2022-10-30T07:22:47;12.80;99.90
19252;DHT22;9760;50.944;5.304;2022-10-30T07:25:13;12.80;99.90
19252;DHT22;9760;50.944;5.304;2022-10-30T07:27:49;12.80;99.90
19252;DHT22;9760;50.944;5.304;2022-10-30T07:30:18;12.90;99.90
19252;DHT22;9760;50.944;5.304;2022-10-30T07:32:44;12.90;99.90
19252;DHT22;9760;50.944;5.304;2022-10-30T07:35:12;12.80;99.90
19252;DHT22;9760;50.944;5.304;2022-10-30T07:37:38;12.80;99.90
19252;DHT22;9760;50.944;5.304;2022-10-30T07:40:05;12.80;99.90
19252;DHT22;9760;50.944;5.304;2022-10-30T07:42:34;13.00;99.90
19252;DHT22;9760;50.944;5.304;2022-10-30T07:44:59;13.10;99.90
19252;DHT22;9760;50.944;5.304;2022-10-30T07:47:25;13.30;99.90
19252;DHT22;9760;50.944;5.304;2022-10-30T07:49:51;13.30;99.90
19252;DHT22;9760;50.944;5.304;2022-10-30T07:52:16;13.40;99.90
19252;DHT22;9760;50.944;5.304;2022-10-30T07:54:42;13.40;99.90
19252;DHT22;9760;50.944;5.304;2022-10-30T07:57:07;13.60;99.90
19252;DHT22;9760;50.944;5.304;2022-10-30T07:59:33;13.70;99.90
19252;DHT22;9760;50.944;5.304;2022-10-30T08:01:59;13.80;99.90
19252;DHT22;9760;50.944;5.304;2022-10-30T08:04:25;14.00;99.90
19252;DHT22;9760;50.944;5.304;2022-10-30T08:06:51;14.10;99.90
19252;DHT22;9760;50.944;5.304;2022-10-30T08:09:17;14.10;99.90
19252;DHT22;9760;50.944;5.304;2022-10-30T08:11:43;14.20;99.90
19252;DHT22;9760;50.944;5.304;2022-10-30T08:14:08;14.40;99.90
19252;DHT22;9760;50.944;5.304;2022-10-30T08:16:34;14.40;99.90
19252;DHT22;9760;50.944;5.304;2022-10-30T08:18:59;14.60;99.90
19252;DHT22;9760;50.944;5.304;2022-10-30T08:21:25;14.70;99.90
19252;DHT22;9760;50.944;5.304;2022-10-30T08:23:51;14.80;99.90
19252;DHT22;9760;50.944;5.304;2022-10-30T08:26:17;14.90;99.90
19252;DHT22;9760;50.944;5.304;2022-10-30T08:28:42;15.00;99.90
19252;DHT22;9760;50.944;5.304;2022-10-30T08:31:08;15.00;99.90
19252;DHT22;9760;50.944;5.304;2022-10-30T08:33:37;15.10;99.90
19252;DHT22;9760;50.944;5.304;2022-10-30T08:36:02;15.20;99.90
19252;DHT22;9760;50.944;5.304;2022-10-30T08:38:28;15.40;99.90
19252;DHT22;9760;50.944;5.304;2022-10-30T08:40:54;15.60;99.90
19252;DHT22;9760;50.944;5.304;2022-10-30T08:43:20;15.60;99.90
19252;DHT22;9760;50.944;5.304;2022-10-30T08:45:46;15.70;99.90
19252;DHT22;9760;50.944;5.304;2022-10-30T08:48:13;15.90;99.90
19252;DHT22;9760;50.944;5.304;2022-10-30T08:50:39;16.00;99.90
19252;DHT22;9760;50.944;5.304;2022-10-30T08:53:10;16.10;99.90
19252;DHT22;9760;50.944;5.304;2022-10-30T08:55:36;16.30;99.90
19252;DHT22;9760;50.944;5.304;2022-10-30T08:58:02;16.50;99.90
19252;DHT22;9760;50.944;5.304;2022-10-30T09:00:28;16.80;99.90
19252;DHT22;9760;50.944;5.304;2022-10-30T09:02:54;17.10;99.90
19252;DHT22;9760;50.944;5.304;2022-10-30T09:05:20;17.40;99.90
19252;DHT22;9760;50.944;5.304;2022-10-30T09:07:46;17.60;99.90
19252;DHT22;9760;50.944;5.304;2022-10-30T09:10:12;17.80;99.90
19252;DHT22;9760;50.944;5.304;2022-10-30T09:12:37;18.10;99.90
19252;DHT22;9760;50.944;5.304;2022-10-30T09:15:04;18.20;99.90
19252;DHT22;9760;50.944;5.304;2022-10-30T09:17:30;18.50;99.90
19252;DHT22;9760;50.944;5.304;2022-10-30T09:19:56;18.70;99.90
19252;DHT22;9760;50.944;5.304;2022-10-30T09:22:21;18.90;99.90
19252;DHT22;9760;50.944;5.304;2022-10-30T09:24:47;19.10;99.90
19252;DHT22;9760;50.944;5.304;2022-10-30T09:27:13;19.20;99.90
19252;DHT22;9760;50.944;5.304;2022-10-30T09:29:39;19.30;99.90
19252;DHT22;9760;50.944;5.304;2022-10-30T09:32:05;19.40;99.90
19252;DHT22;9760;50.944;5.304;2022-10-30T09:34:35;19.40;99.90
19252;DHT22;9760;50.944;5.304;2022-10-30T09:37:00;19.20;99.90
19252;DHT22;9760;50.944;5.304;2022-10-30T09:39:26;19.10;99.90
19252;DHT22;9760;50.944;5.304;2022-10-30T09:42:17;19.10;99.90
19252;DHT22;9760;50.944;5.304;2022-10-30T09:50:50;19.70;99.90
19252;DHT22;9760;50.944;5.304;2022-10-30T09:53:33;20.20;99.90
19252;DHT22;9760;50.944;5.304;2022-10-30T09:56:11;21.00;99.90
19252;DHT22;9760;50.944;5.304;2022-10-30T10:01:46;22.00;99.90
19252;DHT22;9760;50.944;5.304;2022-10-30T10:04:24;21.70;99.90
19252;DHT22;9760;50.944;5.304;2022-10-30T10:09:43;21.00;99.90
19252;DHT22;9760;50.944;5.304;2022-10-30T10:12:12;20.70;99.90
19252;DHT22;9760;50.944;5.304;2022-10-30T10:14:45;20.50;99.90
19252;DHT22;9760;50.944;5.304;2022-10-30T10:17:29;20.50;99.90
19252;DHT22;9760;50.944;5.304;2022-10-30T10:20:00;20.70;99.90
19252;DHT22;9760;50.944;5.304;2022-10-30T10:22:36;20.90;99.90
19252;DHT22;9760;50.944;5.304;2022-10-30T10:25:08;20.90;99.90
19252;DHT22;9760;50.944;5.304;2022-10-30T10:28:11;21.10;99.90
19252;DHT22;9760;50.944;5.304;2022-10-30T10:30:59;21.60;99.90
19252;DHT22;9760;50.944;5.304;2022-10-30T10:44:05;21.30;99.90
19252;DHT22;9760;50.944;5.304;2022-10-30T10:52:09;20.80;99.90
19252;DHT22;9760;50.944;5.304;2022-10-30T10:54:41;20.70;99.90
19252;DHT22;9760;50.944;5.304;2022-10-30T10:57:25;20.60;99.90
19252;DHT22;9760;50.944;5.304;2022-10-30T11:00:04;20.60;99.90
19252;DHT22;9760;50.944;5.304;2022-10-30T11:02:37;20.60;99.90
19252;DHT22;9760;50.944;5.304;2022-10-30T11:07:49;20.50;99.90
19252;DHT22;9760;50.944;5.304;2022-10-30T11:10:17;20.40;99.90
19252;DHT22;9760;50.944;5.304;2022-10-30T11:12:43;20.50;99.90
19252;DHT22;9760;50.944;5.304;2022-10-30T11:15:26;20.60;99.90
19252;DHT22;9760;50.944;5.304;2022-10-30T11:18:08;20.70;99.90
19252;DHT22;9760;50.944;5.304;2022-10-30T11:20:50;20.70;99.90
19252;DHT22;9760;50.944;5.304;2022-10-30T11:26:00;20.70;99.90
19252;DHT22;9760;50.944;5.304;2022-10-30T11:28:35;20.80;99.90
19252;DHT22;9760;50.944;5.304;2022-10-30T11:31:37;20.80;99.90
19252;DHT22;9760;50.944;5.304;2022-10-30T11:34:22;20.80;99.90
19252;DHT22;9760;50.944;5.304;2022-10-30T11:36:50;20.80;99.90
19252;DHT22;9760;50.944;5.304;2022-10-30T11:39:21;20.90;99.90
19252;DHT22;9760;50.944;5.304;2022-10-30T11:44:41;21.00;99.90
19252;DHT22;9760;50.944;5.304;2022-10-30T11:47:09;21.00;99.90
19252;DHT22;9760;50.944;5.304;2022-10-30T11:49:55;20.90;99.90
19252;DHT22;9760;50.944;5.304;2022-10-30T11:52:23;21.00;99.90
19252;DHT22;9760;50.944;5.304;2022-10-30T11:54:53;21.00;99.90
19252;DHT22;9760;50.944;5.304;2022-10-30T11:57:37;21.20;99.90
19252;DHT22;9760;50.944;5.304;2022-10-30T12:00:14;21.30;99.90
19252;DHT22;9760;50.944;5.304;2022-10-30T12:02:42;21.40;99.90
19252;DHT22;9760;50.944;5.304;2022-10-30T12:05:38;21.50;99.90
19252;DHT22;9760;50.944;5.304;2022-10-30T12:11:00;21.40;99.90
19252;DHT22;9760;50.944;5.304;2022-10-30T12:13:27;21.50;99.90
19252;DHT22;9760;50.944;5.304;2022-10-30T12:16:13;21.70;99.90
19252;DHT22;9760;50.944;5.304;2022-10-30T12:18:40;21.70;99.90
19252;DHT22;9760;50.944;5.304;2022-10-30T12:21:06;21.60;99.90
19252;DHT22;9760;50.944;5.304;2022-10-30T12:23:32;21.80;99.90
19252;DHT22;9760;50.944;5.304;2022-10-30T12:26:00;21.90;99.90
19252;DHT22;9760;50.944;5.304;2022-10-30T12:28:29;22.10;99.90
19252;DHT22;9760;50.944;5.304;2022-10-30T12:31:15;22.00;99.90
19252;DHT22;9760;50.944;5.304;2022-10-30T12:33:49;21.90;99.90
19252;DHT22;9760;50.944;5.304;2022-10-30T12:36:19;21.80;99.90
19252;DHT22;9760;50.944;5.304;2022-10-30T12:38:51;21.80;99.90
19252;DHT22;9760;50.944;5.304;2022-10-30T12:41:31;21.80;99.90
19252;DHT22;9760;50.944;5.304;2022-10-30T12:44:03;21.90;99.90
19252;DHT22;9760;50.944;5.304;2022-10-30T12:46:51;21.90;99.90
19252;DHT22;9760;50.944;5.304;2022-10-30T12:52:27;21.90;99.90
19252;DHT22;9760;50.944;5.304;2022-10-30T12:57:43;21.80;99.90
19252;DHT22;9760;50.944;5.304;2022-10-30T13:02:52;21.80;99.90
19252;DHT22;9760;50.944;5.304;2022-10-30T13:10:34;21.80;99.90
19252;DHT22;9760;50.944;5.304;2022-10-30T13:13:12;21.80;99.90
19252;DHT22;9760;50.944;5.304;2022-10-30T13:15:50;21.80;99.90
19252;DHT22;9760;50.944;5.304;2022-10-30T13:18:22;21.90;99.90
19252;DHT22;9760;50.944;5.304;2022-10-30T13:23:34;22.00;99.90
19252;DHT22;9760;50.944;5.304;2022-10-30T13:28:45;21.90;99.90
19252;DHT22;9760;50.944;5.304;2022-10-30T13:31:33;21.80;99.90
19252;DHT22;9760;50.944;5.304;2022-10-30T13:39:16;21.60;99.90
19252;DHT22;9760;50.944;5.304;2022-10-30T13:41:55;21.50;99.90
19252;DHT22;9760;50.944;5.304;2022-10-30T13:46:57;21.40;99.90
19252;DHT22;9760;50.944;5.304;2022-10-30T13:52:17;21.20;99.90
19252;DHT22;9760;50.944;5.304;2022-10-30T13:57:15;21.30;99.90
19252;DHT22;9760;50.944;5.304;2022-10-30T14:00:13;21.20;99.90
19252;DHT22;9760;50.944;5.304;2022-10-30T14:16:05;21.20;99.90
19252;DHT22;9760;50.944;5.304;2022-10-30T14:24:12;21.10;99.90
19252;DHT22;9760;50.944;5.304;2022-10-30T14:26:45;21.00;99.90
19252;DHT22;9760;50.944;5.304;2022-10-30T14:29:37;21.00;99.90
19252;DHT22;9760;50.944;5.304;2022-10-30T14:37:10;21.10;99.90
19252;DHT22;9760;50.944;5.304;2022-10-30T14:39:43;21.20;99.90
19252;DHT22;9760;50.944;5.304;2022-10-30T14:42:30;21.20;99.90
19252;DHT22;9760;50.944;5.304;2022-10-30T14:47:37;21.10;99.90
19252;DHT22;9760;50.944;5.304;2022-10-30T14:58:39;20.90;99.90
19252;DHT22;9760;50.944;5.304;2022-10-30T15:09:39;20.90;99.90
19252;DHT22;9760;50.944;5.304;2022-10-30T15:14:43;20.80;99.90
19252;DHT22;9760;50.944;5.304;2022-10-30T15:17:18;20.70;99.90
19252;DHT22;9760;50.944;5.304;2022-10-30T15:19:46;20.50;99.90
19252;DHT22;9760;50.944;5.304;2022-10-30T15:22:16;20.50;99.90
19252;DHT22;9760;50.944;5.304;2022-10-30T15:24:44;20.50;99.90
19252;DHT22;9760;50.944;5.304;2022-10-30T15:27:15;20.50;99.90
19252;DHT22;9760;50.944;5.304;2022-10-30T15:29:46;20.50;99.90
19252;DHT22;9760;50.944;5.304;2022-10-30T15:32:16;20.40;99.90
19252;DHT22;9760;50.944;5.304;2022-10-30T15:38:03;20.10;99.90
19252;DHT22;9760;50.944;5.304;2022-10-30T15:40:30;20.10;99.90
19252;DHT22;9760;50.944;5.304;2022-10-30T15:42:58;20.00;99.90
19252;DHT22;9760;50.944;5.304;2022-10-30T15:45:40;20.00;99.90
19252;DHT22;9760;50.944;5.304;2022-10-30T15:50:43;19.80;99.90
19252;DHT22;9760;50.944;5.304;2022-10-30T15:53:18;19.80;99.90
19252;DHT22;9760;50.944;5.304;2022-10-30T15:55:45;19.70;99.90
19252;DHT22;9760;50.944;5.304;2022-10-30T15:58:15;19.70;99.90
19252;DHT22;9760;50.944;5.304;2022-10-30T16:00:41;19.60;99.90
19252;DHT22;9760;50.944;5.304;2022-10-30T16:03:18;19.60;99.90
19252;DHT22;9760;50.944;5.304;2022-10-30T16:05:44;19.50;99.90
19252;DHT22;9760;50.944;5.304;2022-10-30T16:08:21;19.50;99.90
19252;DHT22;9760;50.944;5.304;2022-10-30T16:10:48;19.40;99.90
19252;DHT22;9760;50.944;5.304;2022-10-30T16:13:21;19.30;99.90
19252;DHT22;9760;50.944;5.304;2022-10-30T16:15:47;19.20;99.90
19252;DHT22;9760;50.944;5.304;2022-10-30T16:18:20;19.10;99.90
19252;DHT22;9760;50.944;5.304;2022-10-30T16:20:51;19.10;99.90
19252;DHT22;9760;50.944;5.304;2022-10-30T16:23:18;19.10;99.90
19252;DHT22;9760;50.944;5.304;2022-10-30T16:25:53;19.00;99.90
19252;DHT22;9760;50.944;5.304;2022-10-30T16:31:00;19.10;99.90
19252;DHT22;9760;50.944;5.304;2022-10-30T16:33:28;19.00;99.90
19252;DHT22;9760;50.944;5.304;2022-10-30T16:35:54;19.00;99.90
19252;DHT22;9760;50.944;5.304;2022-10-30T16:38:22;19.00;99.90
19252;DHT22;9760;50.944;5.304;2022-10-30T16:40:48;19.00;99.90
19252;DHT22;9760;50.944;5.304;2022-10-30T16:43:28;18.90;99.90
19252;DHT22;9760;50.944;5.304;2022-10-30T16:45:57;18.90;99.90
19252;DHT22;9760;50.944;5.304;2022-10-30T16:48:37;18.90;99.90
19252;DHT22;9760;50.944;5.304;2022-10-30T16:51:03;18.80;99.90
19252;DHT22;9760;50.944;5.304;2022-10-30T16:53:29;18.80;99.90
19252;DHT22;9760;50.944;5.304;2022-10-30T16:55:56;18.70;99.90
19252;DHT22;9760;50.944;5.304;2022-10-30T16:58:31;18.70;99.90
19252;DHT22;9760;50.944;5.304;2022-10-30T17:01:03;18.60;99.90
19252;DHT22;9760;50.944;5.304;2022-10-30T17:03:35;18.50;99.90
19252;DHT22;9760;50.944;5.304;2022-10-30T17:06:05;18.50;99.90
19252;DHT22;9760;50.944;5.304;2022-10-30T17:08:41;18.40;99.90
19252;DHT22;9760;50.944;5.304;2022-10-30T17:11:16;18.40;99.90
19252;DHT22;9760;50.944;5.304;2022-10-30T17:16:29;18.30;99.90
19252;DHT22;9760;50.944;5.304;2022-10-30T17:18:58;18.20;99.90
19252;DHT22;9760;50.944;5.304;2022-10-30T17:21:28;18.10;99.90
19252;DHT22;9760;50.944;5.304;2022-10-30T17:23:59;18.10;99.90
19252;DHT22;9760;50.944;5.304;2022-10-30T17:26:26;18.10;99.90
19252;DHT22;9760;50.944;5.304;2022-10-30T17:28:56;18.00;99.90
19252;DHT22;9760;50.944;5.304;2022-10-30T17:31:31;18.00;99.90
19252;DHT22;9760;50.944;5.304;2022-10-30T17:36:36;17.80;99.90
19252;DHT22;9760;50.944;5.304;2022-10-30T17:39:03;17.80;99.90
19252;DHT22;9760;50.944;5.304;2022-10-30T17:41:28;17.70;99.90
19252;DHT22;9760;50.944;5.304;2022-10-30T17:43:55;17.70;99.90
19252;DHT22;9760;50.944;5.304;2022-10-30T17:46:21;17.60;99.90
19252;DHT22;9760;50.944;5.304;2022-10-30T17:48:47;17.60;99.90
19252;DHT22;9760;50.944;5.304;2022-10-30T17:51:13;17.50;99.90
19252;DHT22;9760;50.944;5.304;2022-10-30T17:53:40;17.40;99.90
19252;DHT22;9760;50.944;5.304;2022-10-30T17:56:10;17.20;99.90
19252;DHT22;9760;50.944;5.304;2022-10-30T17:58:38;17.10;99.90
19252;DHT22;9760;50.944;5.304;2022-10-30T18:01:03;17.10;99.90
19252;DHT22;9760;50.944;5.304;2022-10-30T18:03:29;17.00;99.90
19252;DHT22;9760;50.944;5.304;2022-10-30T18:05:55;17.00;99.90
19252;DHT22;9760;50.944;5.304;2022-10-30T18:08:22;16.90;99.90
19252;DHT22;9760;50.944;5.304;2022-10-30T18:10:49;17.00;99.90
19252;DHT22;9760;50.944;5.304;2022-10-30T18:13:14;16.90;99.90
19252;DHT22;9760;50.944;5.304;2022-10-30T18:15:43;16.90;99.90
19252;DHT22;9760;50.944;5.304;2022-10-30T18:18:09;16.90;99.90
19252;DHT22;9760;50.944;5.304;2022-10-30T18:20:34;16.80;99.90
19252;DHT22;9760;50.944;5.304;2022-10-30T18:23:00;16.80;99.90
19252;DHT22;9760;50.944;5.304;2022-10-30T18:25:30;16.80;99.90
19252;DHT22;9760;50.944;5.304;2022-10-30T18:27:56;16.70;99.90
19252;DHT22;9760;50.944;5.304;2022-10-30T18:30:22;16.70;99.90
19252;DHT22;9760;50.944;5.304;2022-10-30T18:32:47;16.70;99.90
19252;DHT22;9760;50.944;5.304;2022-10-30T18:37:39;16.70;99.90